| time (UTC) | temp F | wind direction | speed knots | gust knots | rain 1hr in | rain 24hr in | rain mn in | humidity % | barometer mb |
| 20260503212954 | 75 | 359 | 1.7 | 0.0 | 0.00 | 0.00 | 0.00 | 47 | 1012.9 |
| 20260503211704 | 75 | 359 | 1.7 | 3.5 | 0.00 | 0.00 | 0.00 | 49 | 1013.0 |
| 20260503210347 | 74 | 359 | 1.7 | 2.6 | 0.00 | 0.00 | 0.00 | 49 | 1013.2 |
| 20260503205038 | 73 | 359 | 1.7 | 0.0 | 0.00 | 0.00 | 0.00 | 51 | 1013.2 |
| 20260503203609 | 73 | 359 | 1.7 | 4.3 | 0.00 | 0.00 | 0.00 | 53 | 1013.3 |
| 20260503202347 | 73 | 359 | 0.9 | 0.0 | 0.00 | 0.00 | 0.00 | 52 | 1013.4 |
| 20260503201052 | 72 | 359 | 0.9 | 0.0 | 0.00 | 0.00 | 0.00 | 53 | 1013.6 |
| 20260503195658 | 72 | 359 | 1.7 | 0.9 | 0.00 | 0.00 | 0.00 | 53 | 1013.9 |
| 20260503194444 | 72 | 359 | 1.7 | 7.0 | 0.00 | 0.00 | 0.00 | 55 | 1014.0 |
| 20260503193239 | 71 | 359 | 0.9 | 0.0 | 0.00 | 0.00 | 0.00 | 59 | 1014.0 |
| 20260503191754 | 69 | 359 | 0.9 | 1.7 | 0.00 | 0.00 | 0.00 | 60 | 1014.2 |
| 20260503190557 | 68 | 359 | 0.9 | 0.0 | 0.00 | 0.00 | 0.00 | 68 | 1014.1 |
| 20260503185247 | 67 | 359 | 0.0 | 0.0 | 0.00 | 0.00 | 0.00 | 70 | 1014.3 |
| 20260503183819 | 67 | 359 | 0.0 | 0.0 | 0.00 | 0.00 | 0.00 | 71 | 1014.3 |
| 20260503182534 | 66 | 359 | 0.9 | 0.0 | 0.00 | 0.00 | 0.00 | 71 | 1014.3 |
| 20260503181154 | 65 | 359 | 0.0 | 0.0 | 0.00 | 0.00 | 0.00 | 74 | 1014.3 |
| 20260503175854 | 65 | 359 | 0.0 | 0.0 | 0.00 | 0.00 | 0.00 | 76 | 1014.3 |
| 20260503174359 | 64 | 359 | 0.0 | 0.0 | 0.00 | 0.00 | 0.00 | 77 | 1014.4 |
| 20260503172949 | 64 | 359 | 2.6 | 4.3 | 0.00 | 0.00 | 0.00 | 76 | 1014.4 |
| 20260503171539 | 67 | 359 | 2.6 | 3.5 | 0.00 | 0.00 | 0.00 | 70 | 1014.3 |
| 20260503170139 | 51 | 359 | 0.0 | 0.0 | 0.00 | 0.00 | 0.00 | 96 | 1014.4 |
| 20260503131019 | 51 | 359 | 0.0 | 0.0 | 0.00 | 0.00 | 0.00 | 96 | 1014.4 |
| 20260503120104 | 51 | 359 | 0.0 | 0.0 | 0.00 | 0.00 | 0.00 | 96 | 1014.4 |
| 20260503110747 | 52 | 359 | 0.0 | 0.0 | 0.00 | 0.00 | 0.00 | 96 | 1014.4 |
| 20260503090424 | 53 | 359 | 0.0 | 0.0 | 0.00 | 0.00 | 0.00 | 95 | 1014.6 |
| 20260503081319 | 54 | 359 | 0.0 | 0.0 | 0.00 | 0.00 | 0.00 | 95 | 1014.7 |
| 20260503072209 | 55 | 359 | 0.0 | 0.0 | 0.00 | 0.00 | 0.00 | 94 | 1015.0 |
| 20260503070729 | 55 | 359 | 0.0 | 0.0 | 0.00 | 0.00 | 0.00 | 94 | 1014.9 |
| 20260503054214 | 57 | 359 | 0.0 | 0.0 | 0.00 | 0.00 | 0.00 | 89 | 1014.8 |
| 20260503052924 | 58 | 359 | 0.0 | 0.0 | 0.00 | 0.00 | 0.00 | 88 | 1014.8 |
| 20260503051714 | 59 | 359 | 0.0 | 0.0 | 0.00 | 0.00 | 0.00 | 87 | 1014.8 |
| 20260503050234 | 60 | 359 | 0.0 | 0.0 | 0.00 | 0.00 | 0.00 | 86 | 1014.8 |
| 20260503044839 | 61 | 359 | 0.0 | 0.0 | 0.00 | 0.00 | 0.00 | 85 | 1014.7 |
| 20260503043559 | 61 | 359 | 0.0 | 0.0 | 0.00 | 0.00 | 0.00 | 84 | 1014.6 |
| 20260503042247 | 63 | 359 | 0.9 | 0.0 | 0.00 | 0.00 | 0.00 | 81 | 1014.6 |
| 20260503040929 | 63 | 359 | 0.9 | 0.0 | 0.00 | 0.00 | 0.00 | 81 | 1014.6 |
| 20260503035704 | 64 | 359 | 1.7 | 0.9 | 0.00 | 0.00 | 0.00 | 78 | 1014.5 |
| 20260503034307 | 66 | 359 | 0.0 | 0.0 | 0.00 | 0.00 | 0.00 | 74 | 1014.4 |
| 20260503033009 | 67 | 359 | 0.0 | 0.0 | 0.00 | 0.00 | 0.00 | 71 | 1014.5 |
| 20260503031544 | 68 | 359 | 0.0 | 0.0 | 0.00 | 0.00 | 0.00 | 70 | 1014.5 |
| 20260503030239 | 69 | 359 | 0.0 | 0.0 | 0.00 | 0.00 | 0.00 | 67 | 1014.5 |
| 20260503024834 | 69 | 359 | 0.0 | 0.0 | 0.00 | 0.00 | 0.00 | 66 | 1014.5 |
| 20260503023614 | 69 | 359 | 0.0 | 0.0 | 0.00 | 0.00 | 0.00 | 66 | 1014.5 |
| 20260503022327 | 70 | 359 | 0.0 | 0.9 | 0.00 | 0.00 | 0.00 | 65 | 1014.5 |
| 20260503020931 | 71 | 359 | 0.0 | 0.0 | 0.00 | 0.00 | 0.00 | 65 | 1014.6 |
| 20260503015624 | 72 | 359 | 0.9 | 0.0 | 0.00 | 0.00 | 0.00 | 63 | 1014.7 |
| 20260503014207 | 73 | 359 | 0.0 | 0.0 | 0.00 | 0.00 | 0.00 | 61 | 1014.8 |
| 20260503012827 | 74 | 359 | 0.9 | 4.3 | 0.00 | 0.00 | 0.00 | 59 | 1014.8 |
| 20260503011447 | 75 | 359 | 0.9 | 0.0 | 0.00 | 0.00 | 0.00 | 58 | 1014.8 |
| 20260503010144 | 76 | 359 | 0.9 | 0.0 | 0.00 | 0.00 | 0.00 | 58 | 1014.8 |
| 20260503004714 | 76 | 359 | 0.9 | 0.0 | 0.00 | 0.00 | 0.00 | 59 | 1014.9 |
| 20260503003447 | 75 | 359 | 0.9 | 0.9 | 0.00 | 0.00 | 0.00 | 59 | 1015.0 |
| 20260503002047 | 73 | 359 | 0.9 | 0.0 | 0.00 | 0.00 | 0.00 | 60 | 1015.1 |
| 20260503000842 | 74 | 359 | 3.5 | 1.7 | 0.00 | 0.00 | 0.00 | 59 | 1015.3 |
| 20260502235407 | 75 | 359 | 2.6 | 3.5 | 0.00 | 0.00 | 0.00 | 58 | 1015.4 |
| 20260502234149 | 75 | 359 | 2.6 | 1.7 | 0.00 | 0.00 | 0.00 | 58 | 1015.5 |
| 20260502232739 | 75 | 359 | 2.6 | 0.9 | 0.00 | 0.00 | 0.00 | 58 | 1015.6 |
| 20260502231307 | 75 | 359 | 1.7 | 0.0 | 0.00 | 0.00 | 0.00 | 62 | 1015.7 |
| 20260502225927 | 74 | 359 | 2.6 | 2.6 | 0.00 | 0.00 | 0.00 | 61 | 1016.0 |
| 20260502224427 | 74 | 359 | 2.6 | 1.7 | 0.00 | 0.00 | 0.00 | 62 | 1016.3 |
| 20260502223227 | 73 | 359 | 2.6 | 0.0 | 0.00 | 0.00 | 0.00 | 65 | 1016.4 |
| 20260502221919 | 71 | 359 | 3.5 | 3.5 | 0.00 | 0.00 | 0.00 | 65 | 1016.5 |
| 20260502220534 | 70 | 359 | 3.5 | 5.2 | 0.00 | 0.00 | 0.00 | 68 | 1016.6 |
| 20260502215239 | 68 | 359 | 3.5 | 4.3 | 0.00 | 0.00 | 0.00 | 73 | 1016.8 |
| 20260502214014 | 66 | 359 | 3.5 | 2.6 | 0.00 | 0.00 | 0.00 | 75 | 1017.0 |